createdAt,value
2022-11-13T00:00:25.421Z,82.03
2022-11-13T00:03:30.439Z,100.35
2022-11-13T00:06:34.784Z,56.13
2022-11-13T00:09:39.463Z,46.95
2022-11-13T00:12:44.464Z,157.73
2022-11-13T00:16:03.925Z,81.18
2022-11-13T00:19:08.509Z,76.70
2022-11-13T00:22:13.245Z,31.27
2022-11-13T00:25:18.098Z,26.90
2022-11-13T00:28:23.026Z,63.25
2022-11-13T00:31:29.269Z,127.82
2022-11-13T00:34:47.272Z,41.72
2022-11-13T00:37:54.377Z,39.70
2022-11-13T00:40:59.473Z,52.28
2022-11-13T00:44:04.103Z,75.13
2022-11-13T00:47:08.670Z,72.50
2022-11-13T00:50:13.752Z,47.70
2022-11-13T00:53:18.621Z,119.72
2022-11-13T00:56:23.873Z,56.60
2022-11-13T00:59:28.617Z,65.47
2022-11-13T01:02:33.329Z,60.22
2022-11-13T01:05:43.980Z,31.20
2022-11-13T01:08:50.011Z,36.65
2022-11-13T01:11:54.994Z,67.75
2022-11-13T01:15:00.037Z,74.20
2022-11-13T01:18:04.922Z,37.92
2022-11-13T01:21:13.334Z,98.50
2022-11-13T01:24:18.622Z,50.70
2022-11-13T01:27:23.226Z,75.60
2022-11-13T01:30:28.200Z,47.80
2022-11-13T01:33:32.957Z,37.20
2022-11-13T01:36:37.866Z,29.63
2022-11-13T01:39:42.855Z,72.32
2022-11-13T01:42:47.756Z,29.20
2022-11-13T01:45:58.834Z,95.93
2022-11-13T01:49:09.748Z,39.78
2022-11-13T01:52:28.450Z,39.08
2022-11-13T01:55:33.507Z,42.58
2022-11-13T01:58:40.364Z,48.67
2022-11-13T02:01:45.218Z,30.63
2022-11-13T02:04:50.553Z,59.22
2022-11-13T02:07:55.350Z,42.65
2022-11-13T02:11:00.505Z,55.83
2022-11-13T02:14:06.510Z,32.13
2022-11-13T02:17:42.261Z,19.20
2022-11-13T02:21:11.197Z,31.05
2022-11-13T02:27:41.392Z,75.68
2022-11-13T02:30:46.582Z,59.85
2022-11-13T02:33:51.384Z,58.85
2022-11-13T02:36:56.434Z,38.70
2022-11-13T02:40:01.466Z,23.45
2022-11-13T02:43:05.834Z,37.95
2022-11-13T02:46:10.929Z,42.50
2022-11-13T02:49:15.866Z,23.25
2022-11-13T02:52:21.011Z,37.25
2022-11-13T02:55:26.044Z,40.70
2022-11-13T02:58:31.226Z,70.13
2022-11-13T03:01:36.553Z,60.25
2022-11-13T03:05:10.388Z,65.47
2022-11-13T03:08:06.762Z,26.67
2022-11-13T03:11:12.586Z,44.90
2022-11-13T03:14:17.519Z,81.93
2022-11-13T03:17:22.422Z,14.95
2022-11-13T03:20:27.493Z,93.30
2022-11-13T03:23:32.431Z,31.77
2022-11-13T03:26:37.417Z,75.03
2022-11-13T03:29:42.373Z,39.45
2022-11-13T03:32:47.235Z,30.65
2022-11-13T03:35:52.407Z,76.25
2022-11-13T03:38:57.554Z,29.30
2022-11-13T03:42:02.294Z,46.90
2022-11-13T03:45:07.524Z,39.53
2022-11-13T03:48:12.823Z,158.07
2022-11-13T03:51:17.404Z,129.18
2022-11-13T03:54:22.284Z,50.10
2022-11-13T03:57:27.501Z,25.40
2022-11-13T04:00:33.332Z,32.97
2022-11-13T04:03:37.977Z,30.48
2022-11-13T04:06:43.043Z,24.55
2022-11-13T04:09:47.649Z,24.50
2022-11-13T04:12:52.689Z,69.07
2022-11-13T04:15:57.603Z,10.25
2022-11-13T04:19:02.489Z,10.40
2022-11-13T04:22:07.661Z,13.95
2022-11-13T04:25:12.304Z,22.27
2022-11-13T04:28:17.141Z,12.65
2022-11-13T04:31:22.456Z,24.25
2022-11-13T04:34:27.498Z,13.75
2022-11-13T04:37:32.612Z,13.77
2022-11-13T04:40:37.661Z,58.55
2022-11-13T04:43:42.546Z,39.50
2022-11-13T04:46:47.300Z,25.65
2022-11-13T04:49:52.258Z,29.15
2022-11-13T04:52:57.195Z,41.22
2022-11-13T04:56:02.185Z,12.63
2022-11-13T04:59:07.268Z,46.67
2022-11-13T05:02:12.299Z,50.35
2022-11-13T05:05:17.428Z,18.92
2022-11-13T05:08:22.135Z,42.17
2022-11-13T05:11:26.917Z,37.28
2022-11-13T05:14:31.921Z,18.98
2022-11-13T05:17:36.802Z,12.75
2022-11-13T05:20:41.842Z,21.90
2022-11-13T05:23:46.710Z,24.55
2022-11-13T05:26:52.157Z,18.38
2022-11-13T05:29:57.006Z,44.75
2022-11-13T05:33:01.926Z,32.63
2022-11-13T05:36:12.716Z,18.17
2022-11-13T05:39:17.454Z,37.50
2022-11-13T05:42:22.516Z,18.45
2022-11-13T05:45:27.529Z,29.70
2022-11-13T05:48:33.483Z,49.45
2022-11-13T05:51:38.071Z,28.65
2022-11-13T05:54:43.145Z,17.52
2022-11-13T05:57:48.228Z,12.35
2022-11-13T06:00:53.394Z,17.35
2022-11-13T06:04:00.101Z,32.25
2022-11-13T06:07:04.891Z,20.30
2022-11-13T06:10:09.982Z,32.67
2022-11-13T06:13:14.647Z,24.13
2022-11-13T06:16:22.783Z,35.40
2022-11-13T06:19:27.282Z,20.13
2022-11-13T06:22:32.134Z,34.60
2022-11-13T06:25:37.139Z,28.77
2022-11-13T06:28:42.292Z,37.65
2022-11-13T06:31:47.179Z,29.42
2022-11-13T06:34:51.975Z,19.10
2022-11-13T06:37:56.762Z,72.72
2022-11-13T06:41:02.420Z,73.07
2022-11-13T06:44:07.213Z,31.75
2022-11-13T06:47:12.192Z,25.55
2022-11-13T06:50:17.366Z,18.95
2022-11-13T06:53:22.290Z,28.63
2022-11-13T06:56:27.104Z,50.90
2022-11-13T06:59:32.003Z,97.60
2022-11-13T07:02:37.031Z,46.40
2022-11-13T07:05:42.352Z,37.38
2022-11-13T07:08:47.866Z,25.10
2022-11-13T07:11:52.472Z,19.77
2022-11-13T07:14:57.532Z,49.75
2022-11-13T07:18:03.987Z,42.33
2022-11-13T07:21:11.236Z,43.13
2022-11-13T07:27:21.845Z,39.15
2022-11-13T07:30:26.923Z,38.30
2022-11-13T07:33:32.301Z,52.92
2022-11-13T07:36:36.902Z,25.42
2022-11-13T07:39:41.664Z,41.85
2022-11-13T07:42:46.499Z,33.15
2022-11-13T07:45:54.711Z,58.63
2022-11-13T07:48:59.731Z,69.25
2022-11-13T07:52:05.044Z,47.92
2022-11-13T07:55:09.860Z,24.92
2022-11-13T07:58:15.244Z,57.13
2022-11-13T08:01:20.140Z,48.70
2022-11-13T08:04:25.004Z,21.02
2022-11-13T08:07:30.040Z,32.90
2022-11-13T08:10:36.304Z,26.70
2022-11-13T08:13:40.929Z,18.17
2022-11-13T08:16:45.920Z,17.77
2022-11-13T08:19:50.716Z,15.85
2022-11-13T08:23:00.129Z,12.75
2022-11-13T08:26:06.375Z,12.00
2022-11-13T08:29:11.158Z,14.68
2022-11-13T08:32:17.516Z,19.40
2022-11-13T08:35:28.142Z,15.57
2022-11-13T08:38:34.142Z,17.15
2022-11-13T08:41:38.788Z,10.73
2022-11-13T08:44:43.998Z,11.35
2022-11-13T08:47:49.970Z,11.20
2022-11-13T08:50:56.548Z,10.82
2022-11-13T08:54:01.487Z,11.77
2022-11-13T08:57:06.393Z,11.00
2022-11-13T09:00:12.133Z,11.07
2022-11-13T09:03:16.612Z,13.15
2022-11-13T09:06:21.343Z,11.45
2022-11-13T09:09:26.415Z,12.05
2022-11-13T09:12:31.350Z,11.77
2022-11-13T09:15:38.948Z,13.70
2022-11-13T09:18:44.085Z,11.10
2022-11-13T09:21:49.128Z,13.00
2022-11-13T09:24:53.719Z,14.23
2022-11-13T09:28:00.491Z,11.18
2022-11-13T09:31:06.652Z,13.05
2022-11-13T09:34:11.607Z,12.35
2022-11-13T09:37:16.765Z,13.30
2022-11-13T09:40:29.476Z,12.35
2022-11-13T09:43:43.892Z,15.20
2022-11-13T09:47:03.832Z,12.73
2022-11-13T09:50:20.289Z,13.23
2022-11-13T09:53:27.429Z,12.60
2022-11-13T09:56:59.538Z,15.13
2022-11-13T10:00:14.280Z,14.30
2022-11-13T10:04:00.588Z,13.50
2022-11-13T10:07:45.985Z,13.75
2022-11-13T10:11:08.981Z,14.13
2022-11-13T10:14:36.864Z,13.88
2022-11-13T10:17:44.417Z,11.83
2022-11-13T10:20:49.301Z,12.90
2022-11-13T10:23:56.826Z,12.38
2022-11-13T10:27:02.167Z,12.45
2022-11-13T10:30:17.216Z,14.75
2022-11-13T10:33:23.590Z,13.63
2022-11-13T10:36:34.399Z,13.80
2022-11-13T10:39:45.497Z,12.38
2022-11-13T10:42:50.495Z,12.20
2022-11-13T10:46:00.654Z,14.80
2022-11-13T10:49:34.795Z,12.55
2022-11-13T10:52:48.211Z,12.38
2022-11-13T10:55:57.601Z,14.25
2022-11-13T10:59:14.797Z,14.43
2022-11-13T11:02:25.122Z,14.93
2022-11-13T11:05:30.315Z,17.27
2022-11-13T11:08:35.957Z,16.52
2022-11-13T11:11:59.389Z,13.93
2022-11-13T11:15:36.385Z,13.57
2022-11-13T11:19:04.493Z,14.07
2022-11-13T11:22:16.850Z,13.80
2022-11-13T11:25:43.693Z,14.27
2022-11-13T11:29:10.147Z,15.48
2022-11-13T11:32:29.667Z,14.77
2022-11-13T11:35:44.353Z,16.30
2022-11-13T11:39:02.769Z,15.73
2022-11-13T11:42:25.817Z,12.38
2022-11-13T11:45:35.348Z,15.85
2022-11-13T11:48:40.828Z,13.18
2022-11-13T11:52:26.035Z,13.85
2022-11-13T11:56:00.131Z,13.52
2022-11-13T11:59:04.845Z,13.68
2022-11-13T12:02:27.014Z,13.63
2022-11-13T12:05:50.256Z,14.15
2022-11-13T12:09:32.733Z,14.68
2022-11-13T12:13:09.624Z,24.23
2022-11-13T12:16:28.819Z,12.18
2022-11-13T12:19:53.585Z,12.15
2022-11-13T12:23:15.639Z,10.98
2022-11-13T12:26:41.102Z,13.07
2022-11-13T12:30:00.971Z,11.02
2022-11-13T12:33:14.058Z,10.55
2022-11-13T12:36:20.772Z,12.52
2022-11-13T12:39:34.352Z,10.45
2022-11-13T12:42:48.893Z,10.45
2022-11-13T12:46:08.172Z,10.85
2022-11-13T12:49:24.839Z,11.30
2022-11-13T12:52:30.166Z,14.63
2022-11-13T12:55:37.672Z,11.13
2022-11-13T12:59:15.559Z,9.63
2022-11-13T13:02:37.594Z,12.95
2022-11-13T13:06:04.767Z,11.25
2022-11-13T13:09:42.058Z,9.55
2022-11-13T13:12:56.381Z,11.05
2022-11-13T13:16:04.700Z,10.00
2022-11-13T13:19:28.859Z,11.35
2022-11-13T13:22:35.960Z,10.05
2022-11-13T13:25:41.200Z,9.43
2022-11-13T13:28:53.354Z,10.10
2022-11-13T13:32:20.620Z,12.18
2022-11-13T13:35:46.341Z,10.07
2022-11-13T13:39:23.247Z,10.82
2022-11-13T13:43:00.437Z,10.40
2022-11-13T13:46:15.391Z,9.15
2022-11-13T13:49:22.798Z,10.32
2022-11-13T13:52:31.985Z,8.80
2022-11-13T13:55:43.688Z,8.95
2022-11-13T13:58:49.158Z,9.23
2022-11-13T14:01:58.348Z,8.52
2022-11-13T14:05:03.204Z,9.07
2022-11-13T14:08:20.218Z,8.05
2022-11-13T14:11:29.913Z,8.75
2022-11-13T14:14:35.203Z,8.75
2022-11-13T14:17:39.989Z,10.18
2022-11-13T14:20:54.555Z,8.10
2022-11-13T14:24:01.490Z,8.02
2022-11-13T14:27:09.413Z,8.70
2022-11-13T14:30:29.048Z,7.80
2022-11-13T14:33:46.928Z,8.40
2022-11-13T14:36:51.750Z,8.25
2022-11-13T14:40:00.721Z,8.85
2022-11-13T14:43:10.268Z,8.80
2022-11-13T14:46:38.917Z,9.07
2022-11-13T14:49:43.794Z,8.82
2022-11-13T14:53:04.529Z,9.85
2022-11-13T14:56:11.848Z,11.70
2022-11-13T14:59:25.212Z,10.23
2022-11-13T15:02:30.212Z,9.52
2022-11-13T15:05:35.139Z,9.77
2022-11-13T15:08:39.861Z,10.73
2022-11-13T15:11:44.799Z,10.32
2022-11-13T15:14:49.585Z,11.25
2022-11-13T15:17:55.368Z,9.80
2022-11-13T15:21:00.532Z,13.32
2022-11-13T15:24:05.842Z,10.93
2022-11-13T15:27:15.645Z,11.98
2022-11-13T15:30:21.653Z,12.80
2022-11-13T15:33:27.499Z,11.63
2022-11-13T15:36:32.741Z,13.20
2022-11-13T15:39:37.568Z,12.73
2022-11-13T15:42:43.752Z,14.55
2022-11-13T15:45:48.334Z,11.98
2022-11-13T15:48:53.510Z,12.98
2022-11-13T15:51:58.692Z,11.80
2022-11-13T15:55:06.702Z,12.98
2022-11-13T15:58:18.394Z,12.10
2022-11-13T16:01:23.376Z,13.48
2022-11-13T16:04:44.009Z,11.43
2022-11-13T16:07:54.373Z,13.38
2022-11-13T16:10:59.339Z,11.73
2022-11-13T16:14:04.704Z,12.40
2022-11-13T16:17:21.630Z,12.70
2022-11-13T16:20:26.452Z,12.48
2022-11-13T16:23:31.541Z,10.88
2022-11-13T16:26:36.580Z,12.18
2022-11-13T16:29:41.210Z,11.48
2022-11-13T16:32:47.129Z,13.35
2022-11-13T16:35:51.593Z,12.75
2022-11-13T16:38:56.595Z,14.57
2022-11-13T16:42:01.929Z,14.60
2022-11-13T16:45:07.490Z,14.48
2022-11-13T16:48:16.029Z,13.52
2022-11-13T16:51:21.088Z,16.33
2022-11-13T16:54:25.818Z,14.85
2022-11-13T16:57:30.633Z,18.05
2022-11-13T17:00:35.951Z,13.88
2022-11-13T17:03:40.992Z,17.42
2022-11-13T17:06:45.847Z,12.13
2022-11-13T17:10:09.986Z,12.07
2022-11-13T17:13:15.563Z,13.18
2022-11-13T17:16:21.763Z,16.42
2022-11-13T17:19:27.020Z,18.92
2022-11-13T17:22:32.108Z,17.33
2022-11-13T17:25:36.923Z,18.45
2022-11-13T17:28:41.909Z,21.88
2022-11-13T17:31:46.800Z,19.90
2022-11-13T17:34:51.637Z,14.68
2022-11-13T17:37:56.637Z,36.70
2022-11-13T17:41:12.732Z,19.08
2022-11-13T17:44:17.673Z,20.95
2022-11-13T17:47:22.830Z,18.42
2022-11-13T17:50:27.834Z,21.23
2022-11-13T17:53:33.898Z,21.10
2022-11-13T17:56:38.588Z,18.83
2022-11-13T17:59:43.221Z,18.50
2022-11-13T18:02:48.357Z,19.55
2022-11-13T18:05:53.402Z,22.40
2022-11-13T18:08:58.433Z,24.27
2022-11-13T18:12:03.529Z,27.00
2022-11-13T18:15:08.856Z,25.45
2022-11-13T18:18:13.713Z,24.17
2022-11-13T18:21:23.451Z,30.38
2022-11-13T18:24:28.797Z,26.30
2022-11-13T18:27:33.519Z,26.20
2022-11-13T18:30:39.514Z,29.08
2022-11-13T18:33:44.793Z,30.75
2022-11-13T18:36:49.764Z,28.58
2022-11-13T18:39:54.386Z,30.50
2022-11-13T18:42:59.139Z,28.40
2022-11-13T18:46:06.468Z,28.27
2022-11-13T18:49:11.063Z,26.83
2022-11-13T18:52:15.844Z,25.52
2022-11-13T18:55:20.758Z,23.52
2022-11-13T18:58:26.289Z,25.52
2022-11-13T19:01:33.762Z,23.40
2022-11-13T19:04:38.837Z,24.98
2022-11-13T19:07:43.911Z,28.65
2022-11-13T19:10:48.517Z,29.30
2022-11-13T19:13:54.137Z,24.35
2022-11-13T19:16:58.837Z,22.13
2022-11-13T19:20:04.196Z,24.60
2022-11-13T19:23:09.525Z,27.63
2022-11-13T19:26:14.721Z,24.95
2022-11-13T19:29:20.295Z,24.00
2022-11-13T19:32:25.176Z,30.23
2022-11-13T19:35:30.177Z,27.10
2022-11-13T19:38:35.922Z,27.73
2022-11-13T19:41:40.804Z,41.05
2022-11-13T19:44:45.675Z,47.53
2022-11-13T19:47:50.510Z,59.65
2022-11-13T19:50:55.127Z,60.22
2022-11-13T19:54:00.196Z,57.15
2022-11-13T19:57:05.071Z,55.05
2022-11-13T20:00:10.763Z,80.45
2022-11-13T20:03:15.861Z,33.70
2022-11-13T20:06:20.994Z,27.52
2022-11-13T20:09:25.773Z,29.52
2022-11-13T20:12:31.375Z,47.78
2022-11-13T20:15:36.213Z,30.65
2022-11-13T20:18:42.227Z,32.88
2022-11-13T20:21:46.848Z,26.70
2022-11-13T20:24:51.702Z,33.22
2022-11-13T20:27:56.800Z,19.92
2022-11-13T20:31:22.326Z,58.38
2022-11-13T20:34:27.242Z,29.23
2022-11-13T20:37:32.441Z,50.83
2022-11-13T20:40:37.293Z,50.88
2022-11-13T20:43:42.211Z,34.10
2022-11-13T20:46:47.278Z,47.90
2022-11-13T20:49:51.965Z,52.38
2022-11-13T20:52:56.914Z,80.57
2022-11-13T20:56:02.204Z,51.85
2022-11-13T20:59:07.530Z,40.95
2022-11-13T21:02:13.626Z,62.75
2022-11-13T21:05:18.345Z,61.97
2022-11-13T21:08:23.429Z,33.80
2022-11-13T21:11:29.528Z,57.28
2022-11-13T21:14:34.177Z,65.32
2022-11-13T21:17:39.527Z,91.93
2022-11-13T21:20:44.413Z,47.65
2022-11-13T21:23:49.224Z,40.63
2022-11-13T21:26:54.261Z,49.55
2022-11-13T21:29:59.128Z,48.45
2022-11-13T21:33:03.869Z,29.42
2022-11-13T21:36:28.932Z,52.78
2022-11-13T21:39:34.638Z,65.97
2022-11-13T21:42:39.185Z,28.58
2022-11-13T21:45:43.796Z,73.53
2022-11-13T21:48:49.980Z,59.67
2022-11-13T21:51:54.554Z,56.38
2022-11-13T21:54:59.818Z,52.42
2022-11-13T21:58:04.575Z,58.63
2022-11-13T22:01:11.104Z,53.75
2022-11-13T22:04:15.640Z,39.78
2022-11-13T22:07:20.724Z,23.40
2022-11-13T22:10:25.640Z,31.05
2022-11-13T22:13:31.165Z,59.00
2022-11-13T22:16:38.845Z,35.58
2022-11-13T22:19:43.571Z,31.30
2022-11-13T22:22:48.512Z,28.10
2022-11-13T22:25:58.420Z,47.08
2022-11-13T22:29:03.492Z,22.10
2022-11-13T22:32:08.536Z,47.40
2022-11-13T22:35:13.389Z,25.63
2022-11-13T22:38:18.116Z,49.47
2022-11-13T22:41:29.349Z,55.65
2022-11-13T22:44:54.431Z,24.65
2022-11-13T22:47:59.194Z,47.10
2022-11-13T22:51:06.675Z,33.03
2022-11-13T22:54:12.908Z,34.42
2022-11-13T22:57:17.893Z,22.25
2022-11-13T23:00:22.756Z,32.60
2022-11-13T23:03:27.796Z,34.03
2022-11-13T23:06:33.980Z,23.60
2022-11-13T23:09:38.522Z,39.08
2022-11-13T23:12:43.129Z,27.17
2022-11-13T23:15:48.185Z,21.05
2022-11-13T23:18:54.781Z,19.10
2022-11-13T23:21:59.637Z,23.17
2022-11-13T23:25:04.774Z,33.60
2022-11-13T23:28:10.162Z,42.42
2022-11-13T23:31:15.362Z,50.35
2022-11-13T23:34:38.326Z,26.02
2022-11-13T23:37:45.009Z,24.92
2022-11-13T23:40:54.648Z,36.42
2022-11-13T23:44:08.942Z,62.97
2022-11-13T23:47:14.347Z,63.92
2022-11-13T23:50:19.443Z,128.27
2022-11-13T23:53:24.257Z,84.20
2022-11-13T23:56:28.980Z,121.25
2022-11-13T23:59:33.830Z,81.85
